Time;durP1;ratioP1;P1;durP2;ratioP2;P2;SDS_P1;SDS_P2;PMS_P1;PMS_P2;Temp;Humidity;BMP_temperature;BMP_pressure;BME280_temperature;BME280_humidity;BME280_pressure;Samples;Min_cycle;Max_cycle;Signal;HPM_P1;HPM_P2
2021/12/06 00:02:27;;;;;;;35.30;16.90;;;;;;;10.25;56.40;101357.75;4955181;29;20016;-61
2021/12/06 00:04:53;;;;;;;34.35;16.35;;;;;;;10.30;55.99;101360.41;4938498;29;20032;-61
2021/12/06 00:07:21;;;;;;;34.25;16.20;;;;;;;10.20;56.28;101355.06;4954707;29;20125;-61
2021/12/06 00:09:46;;;;;;;36.45;16.27;;;;;;;10.13;56.46;101363.63;4955290;29;20035;-62
2021/12/06 00:12:14;;;;;;;35.20;17.13;;;;;;;9.79;57.31;101361.66;4921933;29;20050;-62
2021/12/06 00:14:41;;;;;;;34.90;16.67;;;;;;;9.89;57.21;101370.91;4955296;29;20036;-60
2021/12/06 00:17:10;;;;;;;34.00;16.70;;;;;;;10.41;55.53;101368.59;4953674;29;20030;-61
2021/12/06 00:19:37;;;;;;;37.50;17.58;;;;;;;10.40;55.69;101372.44;4955033;29;20121;-64
2021/12/06 00:22:06;;;;;;;38.22;18.65;;;;;;;10.49;55.49;101370.69;4954487;29;20058;-64
2021/12/06 00:24:32;;;;;;;42.80;19.45;;;;;;;10.32;55.73;101374.72;4937922;29;20056;-63
2021/12/06 00:26:59;;;;;;;40.45;19.33;;;;;;;10.15;56.37;101379.75;4922196;29;20062;-63
2021/12/06 00:29:24;;;;;;;42.00;19.15;;;;;;;9.86;56.78;101383.25;4953753;29;20055;-62
2021/12/06 00:31:51;;;;;;;39.15;19.17;;;;;;;10.18;56.35;101387.41;4954777;29;20024;-63
2021/12/06 00:34:18;;;;;;;42.92;19.70;;;;;;;9.79;57.54;101390.97;4953381;29;20043;-63
2021/12/06 00:36:53;;;;;;;38.38;17.23;;;;;;;9.66;58.11;101386.16;4954500;29;20031;-61
2021/12/06 00:39:20;;;;;;;43.50;19.40;;;;;;;9.71;57.57;101386.13;4953253;29;20028;-61
2021/12/06 00:41:46;;;;;;;44.35;19.42;;;;;;;9.87;57.49;101386.81;4937912;29;20028;-63
2021/12/06 00:44:12;;;;;;;38.47;19.17;;;;;;;9.94;57.03;101390.88;4954146;29;20042;-64
2021/12/06 00:46:38;;;;;;;41.80;19.92;;;;;;;10.14;57.06;101394.56;4937791;29;20031;-61
2021/12/06 00:49:04;;;;;;;43.13;19.73;;;;;;;10.30;56.27;101390.56;4953927;29;20031;-64
2021/12/06 00:51:30;;;;;;;44.70;20.02;;;;;;;10.36;55.98;101393.31;4937493;29;20070;-62
2021/12/06 00:53:55;;;;;;;39.30;18.63;;;;;;;10.26;56.30;101400.50;4954517;29;20032;-62
2021/12/06 00:56:21;;;;;;;45.42;19.90;;;;;;;9.76;58.19;101413.44;4954128;29;20059;-63
2021/12/06 00:58:46;;;;;;;38.17;18.02;;;;;;;9.88;57.82;101411.19;4954224;29;20095;-60
2021/12/06 01:01:12;;;;;;;41.50;19.33;;;;;;;9.90;57.94;101419.94;4936874;29;20028;-62
2021/12/06 01:03:40;;;;;;;42.05;19.05;;;;;;;9.41;59.10;101420.75;4937356;29;20099;-63
2021/12/06 01:06:09;;;;;;;42.20;18.85;;;;;;;9.19;59.32;101427.41;4953715;29;20032;-61
2021/12/06 01:08:34;;;;;;;41.08;19.65;;;;;;;9.80;58.07;101433.69;4937391;29;20024;-61
2021/12/06 01:11:00;;;;;;;45.50;19.15;;;;;;;10.12;57.55;101429.66;4954017;29;20111;-63
2021/12/06 01:13:27;;;;;;;42.83;19.40;;;;;;;9.70;58.23;101434.56;4937112;29;20023;-64
2021/12/06 01:15:54;;;;;;;43.28;20.02;;;;;;;9.52;59.34;101438.78;4954240;29;20719;-63
2021/12/06 01:18:20;;;;;;;41.80;19.40;;;;;;;9.74;58.71;101448.53;4953603;29;20043;-61
2021/12/06 01:21:17;;;;;;;45.38;19.95;;;;;;;9.47;59.21;101444.28;4954165;29;20023;-62
2021/12/06 01:23:48;;;;;;;42.90;19.92;;;;;;;9.53;59.15;101448.63;4953011;29;20058;-61
2021/12/06 01:39:57;;;;;;;48.10;21.08;;;;;;;10.47;56.24;101455.16;4942451;29;20070;-64
2021/12/06 01:42:23;;;;;;;46.40;21.08;;;;;;;10.20;57.29;101464.66;4953518;29;20032;-60
2021/12/06 01:44:55;;;;;;;45.42;20.65;;;;;;;9.96;57.87;101473.56;4953605;29;20026;-61
2021/12/06 01:47:29;;;;;;;47.72;22.65;;;;;;;10.48;56.34;101473.22;4952522;29;20040;-63
2021/12/06 01:50:02;;;;;;;50.92;21.92;;;;;;;10.36;56.83;101470.06;4953774;29;20389;-62
2021/12/06 01:52:35;;;;;;;47.15;21.48;;;;;;;10.78;55.55;101482.28;4953416;29;20324;-60
2021/12/06 01:55:01;;;;;;;49.33;22.92;;;;;;;10.10;57.63;101468.28;4952693;29;20116;-63
2021/12/06 01:57:29;;;;;;;49.78;22.48;;;;;;;10.58;56.44;101470.41;4953298;29;20381;-62
2021/12/06 01:59:55;;;;;;;51.08;21.63;;;;;;;9.99;57.60;101470.28;4953672;29;20034;-61
2021/12/06 02:02:23;;;;;;;54.40;24.17;;;;;;;10.44;56.44;101472.19;4936513;29;20108;-61
2021/12/06 02:04:48;;;;;;;;;;;;;;;10.57;55.99;101470.69;4953795;29;20058;-62
2021/12/06 02:07:17;;;;;;;52.25;23.65;;;;;;;9.59;59.47;101468.56;4956346;29;19918;-61
2021/12/06 02:09:44;;;;;;;53.83;23.67;;;;;;;9.60;59.12;101471.03;4940483;29;20032;-62
2021/12/06 02:12:11;;;;;;;51.65;24.30;;;;;;;10.29;56.95;101470.34;4940432;29;20032;-61
2021/12/06 02:17:28;;;;;;;57.13;23.77;;;;;;;9.96;57.67;101462.63;4956986;29;20042;-61
2021/12/06 02:20:04;;;;;;;48.92;22.80;;;;;;;10.79;55.63;101462.81;4941504;29;20040;-63
2021/12/06 02:22:31;;;;;;;50.33;23.30;;;;;;;10.86;55.23;101470.69;4955885;29;20028;-62
2021/12/06 02:24:57;;;;;;;;;;;;;;;11.40;53.52;101465.97;4956414;29;20043;-61
2021/12/06 02:27:27;;;;;;;45.70;20.65;;;;;;;11.36;53.41;101463.00;4955733;29;19970;-63
2021/12/06 02:29:54;;;;;;;52.10;22.83;;;;;;;10.73;55.23;101463.16;4957234;29;20036;-62
2021/12/06 02:32:20;;;;;;;49.05;21.95;;;;;;;10.54;55.85;101458.38;4956481;29;20038;-63
2021/12/06 02:34:49;;;;;;;48.10;21.65;;;;;;;9.56;58.54;101464.50;4940477;29;20031;-63
2021/12/06 02:37:20;;;;;;;47.83;22.63;;;;;;;10.17;57.22;101451.53;4939472;29;20103;-62
2021/12/06 02:39:46;;;;;;;52.95;21.85;;;;;;;9.93;57.87;101463.19;4957100;29;20034;-61
2021/12/06 02:42:15;;;;;;;49.95;21.77;;;;;;;9.72;58.00;101461.66;4956648;29;20059;-64
2021/12/06 02:44:42;;;;;;;50.95;21.73;;;;;;;9.31;59.18;101459.13;4955898;29;20020;-61
2021/12/06 02:47:07;;;;;;;47.22;22.58;;;;;;;9.90;57.86;101463.75;4956822;29;20066;-63
2021/12/06 02:49:33;;;;;;;48.88;22.58;;;;;;;10.90;54.98;101458.03;4956277;29;20031;-61
2021/12/06 02:51:59;;;;;;;48.47;22.33;;;;;;;10.97;54.13;101457.69;4939841;29;20032;-63
2021/12/06 02:54:26;;;;;;;52.88;24.42;;;;;;;11.43;52.68;101460.69;4955666;29;20095;-64
2021/12/06 02:56:56;;;;;;;52.85;24.27;;;;;;;10.64;54.24;101463.78;4956285;29;20500;-62
2021/12/06 02:59:25;;;;;;;46.72;22.95;;;;;;;11.28;52.80;101469.16;4955714;29;20027;-65
2021/12/06 03:01:55;;;;;;;46.95;22.48;;;;;;;11.14;53.12;101473.69;4955415;29;20051;-61
2021/12/06 03:04:21;;;;;;;48.58;21.80;;;;;;;10.35;55.02;101469.22;4955505;29;20047;-63
2021/12/06 03:06:48;;;;;;;48.47;21.45;;;;;;;9.98;56.57;101463.16;4956045;29;20043;-61
2021/12/06 03:09:19;;;;;;;48.30;22.02;;;;;;;9.42;57.92;101463.47;4938514;29;20035;-62
2021/12/06 03:12:07;;;;;;;42.53;20.92;;;;;;;9.34;58.68;101451.19;4955323;29;20041;-62
2021/12/06 03:14:51;;;;;;;45.33;20.65;;;;;;;9.74;57.16;101465.75;4932136;29;20043;-62
2021/12/06 03:17:20;;;;;;;47.22;21.60;;;;;;;10.11;56.32;101460.88;4954751;29;20130;-63
2021/12/06 03:19:46;;;;;;;42.95;20.67;;;;;;;10.91;53.73;101469.81;4955174;29;20035;-62
2021/12/06 03:22:14;;;;;;;51.22;21.00;;;;;;;10.75;53.47;101480.13;4955677;29;20088;-62
2021/12/06 03:24:41;;;;;;;44.78;21.38;;;;;;;11.14;52.67;101481.94;4955040;29;20902;-63
2021/12/06 03:27:06;;;;;;;44.60;20.80;;;;;;;11.00;52.36;101479.88;4955831;29;20031;-61
2021/12/06 03:29:32;;;;;;;44.63;21.40;;;;;;;11.12;52.23;101478.66;4922644;29;20294;-62
2021/12/06 03:31:58;;;;;;;44.63;20.77;;;;;;;11.21;52.08;101474.16;4938548;29;20020;-62
2021/12/06 03:34:26;;;;;;;43.90;20.60;;;;;;;11.24;51.89;101479.88;4922605;29;20036;-63
2021/12/06 03:36:53;;;;;;;43.72;19.50;;;;;;;11.24;51.89;101484.56;4955525;29;20028;-63
2021/12/06 03:39:25;;;;;;;41.35;20.27;;;;;;;11.54;51.54;101468.84;4955412;29;20028;-62
2021/12/06 03:41:54;;;;;;;42.95;20.60;;;;;;;11.34;51.37;101473.47;4955436;29;20040;-62
2021/12/06 03:44:20;;;;;;;47.15;21.55;;;;;;;11.29;51.61;101469.97;4955628;29;20035;-61
2021/12/06 03:46:48;;;;;;;41.78;19.15;;;;;;;10.60;52.58;101472.88;4938135;29;20043;-62
2021/12/06 03:49:15;;;;;;;39.40;19.63;;;;;;;10.50;53.24;101471.84;4954872;28;20039;-65
2021/12/06 03:51:45;;;;;;;44.33;21.08;;;;;;;10.83;52.29;101472.09;4955239;29;20130;-62
2021/12/06 03:54:13;;;;;;;44.55;20.42;;;;;;;10.97;51.75;101472.22;4955547;29;20031;-61
2021/12/06 03:56:40;;;;;;;43.25;20.60;;;;;;;10.98;51.82;101482.09;4954975;29;20027;-64
2021/12/06 03:59:06;;;;;;;38.88;18.55;;;;;;;11.04;51.75;101488.34;4955443;29;20036;-62
2021/12/06 04:01:32;;;;;;;40.90;19.98;;;;;;;11.12;51.63;101498.69;4937979;29;20055;-63
2021/12/06 04:03:59;;;;;;;43.00;20.77;;;;;;;11.10;51.31;101500.06;4938636;29;20028;-62
2021/12/06 04:06:24;;;;;;;43.67;20.48;;;;;;;10.88;51.85;101498.63;4938455;29;20038;-63
2021/12/06 04:08:50;;;;;;;43.55;21.00;;;;;;;11.12;51.35;101503.34;4954740;29;20047;-61
2021/12/06 04:11:17;;;;;;;43.13;20.77;;;;;;;11.15;51.26;101502.75;4955259;29;20087;-63
2021/12/06 04:13:42;;;;;;;45.45;20.27;;;;;;;10.99;51.29;101505.69;4938262;29;20024;-60
2021/12/06 04:16:08;;;;;;;42.05;19.77;;;;;;;10.77;51.63;101495.19;4938342;29;20046;-61
2021/12/06 04:18:34;;;;;;;39.28;19.48;;;;;;;10.14;53.35;101502.22;4954713;29;20083;-63
2021/12/06 04:20:59;;;;;;;46.45;20.65;;;;;;;10.11;53.50;101500.03;4922576;29;20606;-63
2021/12/06 04:23:25;;;;;;;41.15;19.80;;;;;;;10.55;52.27;101492.09;4937842;29;20038;-64
2021/12/06 04:25:51;;;;;;;44.58;20.88;;;;;;;10.71;51.75;101501.84;4954584;29;20047;-63
2021/12/06 04:28:18;;;;;;;38.55;18.63;;;;;;;10.82;51.77;101510.78;4937738;29;20032;-65
2021/12/06 04:30:46;;;;;;;47.08;20.13;;;;;;;10.83;51.66;101509.66;4954492;29;20032;-62
2021/12/06 04:33:12;;;;;;;;;;;;;;;11.17;50.83;101514.28;4954316;28;20024;-61
2021/12/06 04:35:40;;;;;;;39.55;18.88;;;;;;;10.95;50.88;101515.59;4954435;29;19915;-63
2021/12/06 04:38:07;;;;;;;40.45;19.60;;;;;;;10.71;50.87;101515.53;4953592;29;20062;-60
2021/12/06 04:40:33;;;;;;;44.05;20.20;;;;;;;10.69;51.06;101515.03;4937565;29;20035;-63
2021/12/06 04:42:59;;;;;;;41.60;19.50;;;;;;;10.75;51.00;101504.81;4937754;29;20027;-60
2021/12/06 04:45:25;;;;;;;39.03;19.48;;;;;;;10.77;50.86;101513.56;4954587;29;20031;-62
2021/12/06 04:47:52;;;;;;;38.58;17.83;;;;;;;10.74;50.62;101505.91;4954177;29;20035;-60
2021/12/06 04:50:23;;;;;;;42.35;19.50;;;;;;;10.63;50.46;101503.25;4954360;29;20059;-62
2021/12/06 04:52:48;;;;;;;40.28;18.95;;;;;;;10.60;50.55;101498.34;4953090;29;20051;-61
2021/12/06 04:55:29;;;;;;;39.67;19.17;;;;;;;10.48;50.98;101492.41;4954063;29;20039;-63
2021/12/06 04:57:55;;;;;;;40.88;19.45;;;;;;;10.45;51.10;101491.09;4952920;29;20035;-64
2021/12/06 05:00:29;;;;;;;41.75;19.95;;;;;;;9.97;52.22;101482.59;4954069;29;20034;-62
2021/12/06 05:02:55;;;;;;;41.22;20.48;;;;;;;9.83;52.11;101490.66;4953861;29;20027;-63
2021/12/06 05:05:36;;;;;;;43.13;20.63;;;;;;;9.23;53.23;101483.22;4954215;29;20036;-62
2021/12/06 05:08:08;;;;;;;48.30;21.33;;;;;;;8.53;55.64;101489.34;4954319;29;20112;-63
2021/12/06 05:10:33;;;;;;;49.13;21.58;;;;;;;8.77;54.97;101497.00;4952925;29;20042;-63
2021/12/06 05:13:00;;;;;;;53.25;23.90;;;;;;;8.55;55.24;101504.66;4954096;29;20024;-61
2021/12/06 05:15:26;;;;;;;56.00;23.83;;;;;;;9.29;54.00;101508.66;4937326;29;20024;-63
2021/12/06 05:17:51;;;;;;;58.15;23.67;;;;;;;8.56;56.89;101509.00;4953712;29;20032;-62
2021/12/06 05:20:17;;;;;;;60.40;25.75;;;;;;;8.47;57.26;101506.03;4937037;29;20036;-60
2021/12/06 05:22:44;;;;;;;71.75;29.13;;;;;;;7.84;60.37;101514.34;4936946;29;20034;-61
2021/12/06 05:25:10;;;;;;;63.13;27.35;;;;;;;8.59;57.92;101517.50;4953770;29;20043;-61
2021/12/06 05:27:35;;;;;;;72.57;30.52;;;;;;;7.97;59.32;101508.38;4952964;29;20047;-61
2021/12/06 05:30:05;;;;;;;65.88;27.55;;;;;;;8.77;57.07;101518.88;4953721;29;20035;-64
2021/12/06 05:32:34;;;;;;;70.85;28.08;;;;;;;8.72;57.83;101513.41;4953928;29;20572;-61
2021/12/06 05:35:04;;;;;;;68.47;27.77;;;;;;;8.13;59.78;101510.06;4937271;29;20062;-64
2021/12/06 05:37:31;;;;;;;71.50;30.48;;;;;;;8.34;59.10;101515.53;4937436;29;20047;-63
2021/12/06 05:39:57;;;;;;;64.57;27.30;;;;;;;8.26;60.20;101529.75;4936184;29;20035;-62
2021/12/06 05:42:23;;;;;;;67.68;27.33;;;;;;;7.77;61.94;101533.69;4953507;29;20027;-63
2021/12/06 05:44:49;;;;;;;71.72;27.02;;;;;;;8.15;60.30;101535.16;4952179;29;20028;-63
2021/12/06 05:47:16;;;;;;;67.47;27.70;;;;;;;9.41;57.29;101527.50;4953624;29;20036;-61
2021/12/06 05:49:41;;;;;;;70.28;28.30;;;;;;;8.10;61.08;101534.34;4953356;29;20032;-62
2021/12/06 05:52:07;;;;;;;70.45;27.60;;;;;;;8.43;59.89;101532.22;4953626;29;20091;-63
2021/12/06 05:54:33;;;;;;;72.50;27.10;;;;;;;8.48;59.40;101530.34;4936997;29;20036;-63
2021/12/06 05:57:00;;;;;;;69.82;27.75;;;;;;;7.81;62.09;101540.28;4953273;29;20108;-65
2021/12/06 05:59:26;;;;;;;71.00;27.63;;;;;;;7.95;61.42;101535.13;4936714;29;20036;-62
2021/12/06 06:01:54;;;;;;;75.47;28.25;;;;;;;8.31;60.41;101530.56;4951940;29;20035;-61
2021/12/06 06:04:20;;;;;;;69.20;28.30;;;;;;;8.54;59.76;101525.69;4936908;29;20031;-61
2021/12/06 06:06:45;;;;;;;76.45;29.52;;;;;;;7.84;61.99;101533.44;4920439;29;20035;-62
2021/12/06 06:09:10;;;;;;;78.93;30.65;;;;;;;8.41;60.39;101531.66;4936354;29;20066;-61
2021/12/06 06:11:36;;;;;;;78.57;29.45;;;;;;;8.32;60.16;101523.19;4952289;29;20032;-65
2021/12/06 06:14:06;;;;;;;81.63;30.80;;;;;;;8.20;60.84;101525.34;4936266;29;20035;-62
2021/12/06 06:16:36;;;;;;;79.40;29.45;;;;;;;8.05;61.53;101534.31;4953575;29;20024;-63
2021/12/06 06:19:03;;;;;;;79.00;30.25;;;;;;;7.98;61.31;101531.84;4952955;29;20087;-63
2021/12/06 06:21:29;;;;;;;81.93;29.98;;;;;;;8.26;60.66;101518.81;4936721;29;20132;-64
2021/12/06 06:23:54;;;;;;;104.80;31.88;;;;;;;8.75;59.20;101522.94;4928429;29;20135;-63
2021/12/06 06:26:20;;;;;;;92.40;31.60;;;;;;;7.93;61.45;101529.13;4914341;29;20038;-65
2021/12/06 06:28:45;;;;;;;91.85;30.38;;;;;;;8.16;60.77;101525.06;4913980;29;20028;-63
2021/12/06 06:31:11;;;;;;;84.38;29.98;;;;;;;8.12;60.50;101524.78;4915347;29;20033;-62
2021/12/06 06:33:36;;;;;;;92.55;29.65;;;;;;;8.42;60.89;101527.84;4913917;29;20035;-61
2021/12/06 06:36:02;;;;;;;131.38;30.17;;;;;;;7.70;62.40;101546.75;4913826;29;20027;-61
2021/12/06 06:38:28;;;;;;;93.18;31.77;;;;;;;8.12;61.11;101551.28;4915285;29;20056;-62
2021/12/06 06:40:53;;;;;;;89.20;31.60;;;;;;;8.58;59.56;101550.59;4913670;29;20074;-62
2021/12/06 06:43:18;;;;;;;96.00;27.35;;;;;;;8.13;61.15;101552.94;4914110;29;20034;-63
2021/12/06 06:45:44;;;;;;;116.13;28.15;;;;;;;7.51;63.38;101560.03;4915156;29;20096;-62
2021/12/06 06:48:11;;;;;;;88.88;32.20;;;;;;;8.17;61.43;101564.94;4914468;29;20049;-61
2021/12/06 06:50:36;;;;;;;100.40;30.88;;;;;;;8.10;61.73;101562.47;4915233;29;20080;-62
2021/12/06 06:53:02;;;;;;;93.30;30.88;;;;;;;8.57;60.31;101559.88;4917390;29;20032;-63
2021/12/06 06:55:28;;;;;;;95.18;29.83;;;;;;;7.52;62.98;101567.16;4917360;29;20040;-65
2021/12/06 06:57:53;;;;;;;82.43;29.63;;;;;;;7.77;62.26;101567.28;4917148;29;20071;-65
2021/12/06 07:00:26;;;;;;;92.22;28.83;;;;;;;7.73;62.62;101566.19;4918564;29;20115;-61
2021/12/06 07:02:52;;;;;;;114.57;32.42;;;;;;;7.74;63.46;101567.00;4917913;29;20084;-63
2021/12/06 07:05:18;;;;;;;94.13;30.48;;;;;;;8.25;62.50;101564.41;4918273;29;20076;-61
2021/12/06 07:07:43;;;;;;;103.63;31.90;;;;;;;8.21;62.53;101554.28;4901513;29;20043;-64
2021/12/06 07:10:10;;;;;;;98.72;31.30;;;;;;;7.91;63.57;101561.34;4932565;29;20242;-62
2021/12/06 07:12:43;;;;;;;91.70;30.98;;;;;;;7.93;63.50;101565.41;4901607;29;20031;-63
2021/12/06 07:15:11;;;;;;;105.68;32.38;;;;;;;7.50;64.71;101561.16;4917876;29;20052;-61
2021/12/06 07:17:38;;;;;;;111.70;31.38;;;;;;;8.28;62.34;101547.50;4918109;29;20035;-63
2021/12/06 07:20:04;;;;;;;120.15;33.88;;;;;;;7.13;65.56;101537.47;4916593;29;20040;-62
2021/12/06 07:22:29;;;;;;;128.35;32.25;;;;;;;8.28;62.45;101533.84;4917934;29;20101;-63
2021/12/06 07:24:54;;;;;;;100.22;32.95;;;;;;;8.16;63.29;101531.38;4941906;29;20060;-61
2021/12/06 07:27:20;;;;;;;110.13;32.30;;;;;;;8.40;62.24;101536.31;4955990;29;20047;-61
2021/12/06 07:29:45;;;;;;;111.82;33.03;;;;;;;8.50;61.43;101530.88;4955923;29;20036;-62
2021/12/06 07:32:10;;;;;;;94.18;32.90;;;;;;;7.85;63.57;101535.09;4955255;29;20035;-61
2021/12/06 07:34:36;;;;;;;93.18;29.85;;;;;;;7.08;66.39;101532.81;4938611;29;20099;-64
2021/12/06 07:37:03;;;;;;;105.53;31.75;;;;;;;7.65;64.87;101539.38;4955228;29;20032;-61
2021/12/06 07:39:29;;;;;;;102.93;34.22;;;;;;;8.24;63.22;101532.75;4955785;29;20028;-62
2021/12/06 07:41:55;;;;;;;125.85;36.50;;;;;;;7.68;64.27;101529.84;4938269;29;20043;-64
2021/12/06 07:44:20;;;;;;;103.50;33.85;;;;;;;8.13;63.43;101525.63;4955672;29;20028;-62
2021/12/06 07:46:46;;;;;;;118.13;34.28;;;;;;;8.02;63.56;101529.41;4955646;29;20047;-63
2021/12/06 07:49:12;;;;;;;119.95;34.08;;;;;;;8.43;62.06;101527.63;4955342;29;20112;-62
2021/12/06 07:51:37;;;;;;;112.05;33.22;;;;;;;8.56;61.65;101530.88;4938525;29;20036;-62
2021/12/06 07:54:03;;;;;;;121.30;33.83;;;;;;;8.64;60.82;101530.34;4954808;29;20024;-63
2021/12/06 07:56:29;;;;;;;108.55;34.92;;;;;;;7.75;64.65;101536.69;4938754;29;20031;-63
2021/12/06 07:58:54;;;;;;;126.40;38.92;;;;;;;8.03;63.58;101525.59;4955110;29;20036;-61
2021/12/06 08:01:20;;;;;;;112.30;35.88;;;;;;;8.21;63.21;101532.44;4937672;29;20043;-61
2021/12/06 08:03:45;;;;;;;129.90;39.25;;;;;;;7.77;63.56;101534.50;4953582;28;20028;-62
2021/12/06 08:06:11;;;;;;;128.90;38.53;;;;;;;8.18;63.07;101534.63;4954826;29;20031;-64
2021/12/06 08:08:38;;;;;;;109.90;35.47;;;;;;;8.15;63.71;101534.38;4938552;29;20035;-61
2021/12/06 08:11:11;;;;;;;102.93;31.30;;;;;;;7.88;64.08;101534.56;4937844;29;20193;-63
2021/12/06 08:13:39;;;;;;;112.57;34.67;;;;;;;7.42;65.54;101540.63;4954799;29;20031;-64
2021/12/06 08:16:08;;;;;;;121.85;35.95;;;;;;;8.23;63.21;101547.47;4954754;29;20098;-63
2021/12/06 08:18:34;;;;;;;113.07;35.05;;;;;;;8.50;62.24;101547.28;4954964;29;20031;-62
2021/12/06 08:21:00;;;;;;;119.15;36.70;;;;;;;8.18;63.14;101561.94;4937658;29;20104;-60
2021/12/06 08:23:27;;;;;;;121.35;37.85;;;;;;;8.59;62.14;101557.66;4954679;29;20031;-63
2021/12/06 08:25:53;;;;;;;119.43;38.20;;;;;;;7.96;64.24;101569.53;4948393;29;20035;-62
2021/12/06 08:28:20;;;;;;;124.75;38.13;;;;;;;8.03;64.00;101567.34;4942441;29;20035;-64
2021/12/06 08:30:46;;;;;;;124.65;36.75;;;;;;;7.97;63.48;101568.47;4938136;29;20119;-61
2021/12/06 08:33:15;;;;;;;121.00;37.78;;;;;;;8.82;61.77;101567.25;4937798;29;20024;-62
2021/12/06 08:35:45;;;;;;;123.38;39.13;;;;;;;8.18;62.77;101570.16;4937225;29;20047;-62
2021/12/06 08:38:13;;;;;;;135.02;40.13;;;;;;;8.95;61.38;101563.97;4954082;29;20047;-61
2021/12/06 08:40:39;;;;;;;;;;;;;;;9.18;60.79;101554.38;4955117;29;20055;-62
2021/12/06 08:43:06;;;;;;;140.47;39.03;;;;;;;9.31;60.03;101554.91;4954332;29;19974;-65
2021/12/06 08:45:33;;;;;;;131.30;37.67;;;;;;;9.08;60.89;101557.09;4937653;29;20342;-64
2021/12/06 08:47:59;;;;;;;;;;;;;;;8.71;62.51;101548.09;4955320;29;20035;-62
2021/12/06 08:50:27;;;;;;;118.18;35.17;;;;;;;9.10;60.99;101549.47;4954077;29;19911;-63
2021/12/06 08:52:54;;;;;;;130.13;37.72;;;;;;;8.98;61.09;101560.69;4954298;29;20102;-65
2021/12/06 08:55:21;;;;;;;122.07;36.45;;;;;;;8.75;62.15;101553.03;4954031;29;20032;-64
2021/12/06 08:57:46;;;;;;;115.68;35.35;;;;;;;8.52;62.46;101549.75;4937438;29;20083;-63
2021/12/06 09:00:21;;;;;;;118.90;38.63;;;;;;;8.48;62.89;101546.75;4921367;29;20457;-62
2021/12/06 09:02:46;;;;;;;114.15;36.20;;;;;;;8.17;63.23;101543.09;4954137;29;20115;-62
2021/12/06 09:05:13;;;;;;;117.25;37.17;;;;;;;8.58;62.42;101537.72;4937134;29;20032;-61
2021/12/06 09:07:38;;;;;;;135.07;38.63;;;;;;;7.95;64.10;101546.03;4937377;29;20107;-62
2021/12/06 09:10:06;;;;;;;128.68;36.90;;;;;;;8.31;62.81;101543.41;4937080;29;20036;-61
2021/12/06 09:12:32;;;;;;;122.07;36.17;;;;;;;8.79;61.44;101544.00;4956751;29;20038;-61
2021/12/06 09:15:00;;;;;;;126.22;37.85;;;;;;;8.66;61.86;101534.44;4959063;28;20055;-64
2021/12/06 09:17:27;;;;;;;126.40;36.97;;;;;;;8.06;63.44;101538.69;4961633;29;20039;-62
2021/12/06 09:19:53;;;;;;;130.60;38.55;;;;;;;7.84;64.21;101538.91;4947653;29;20066;-62
2021/12/06 09:22:20;;;;;;;126.25;38.97;;;;;;;7.59;64.90;101532.28;4959640;29;20392;-62
2021/12/06 09:24:47;;;;;;;116.15;35.60;;;;;;;7.84;63.63;101534.25;4967070;28;20054;-64
2021/12/06 09:27:12;;;;;;;116.03;34.78;;;;;;;7.85;64.01;101530.44;4928144;29;20038;-64
2021/12/06 09:29:38;;;;;;;122.80;38.20;;;;;;;7.97;64.01;101528.31;4969962;29;20059;-64
2021/12/06 09:32:07;;;;;;;124.05;38.03;;;;;;;8.07;63.50;101527.50;4972281;29;20023;-61
2021/12/06 09:34:34;;;;;;;124.97;39.42;;;;;;;8.36;62.58;101540.69;4972228;29;20038;-63
2021/12/06 09:37:00;;;;;;;126.23;39.40;;;;;;;8.23;62.39;101550.22;4967170;29;20027;-60
2021/12/06 09:39:26;;;;;;;112.93;35.95;;;;;;;8.19;63.02;101557.28;4954772;29;20388;-64
2021/12/06 09:41:52;;;;;;;114.70;35.72;;;;;;;8.80;60.98;101558.53;4955374;29;20094;-63
2021/12/06 09:44:18;;;;;;;106.22;34.30;;;;;;;8.24;62.00;101561.94;4971873;29;20042;-61
2021/12/06 09:46:45;;;;;;;100.05;32.65;;;;;;;8.50;61.12;101552.75;4955712;29;20046;-64
2021/12/06 09:49:17;;;;;;;115.45;37.17;;;;;;;7.78;63.48;101557.19;4972322;29;20062;-63
2021/12/06 09:51:51;;;;;;;102.90;33.53;;;;;;;8.47;61.53;101547.00;4972622;29;20082;-65
2021/12/06 09:54:18;;;;;;;122.53;36.90;;;;;;;8.14;62.25;101552.66;4954524;29;20051;-61
2021/12/06 09:56:45;;;;;;;110.93;35.15;;;;;;;8.64;60.99;101550.31;4972029;28;20073;-62
2021/12/06 09:59:15;;;;;;;116.03;35.38;;;;;;;8.71;61.21;101553.56;4971189;29;20110;-63
2021/12/06 10:02:11;;;;;;;120.60;38.08;;;;;;;8.68;61.17;101547.84;4972316;29;20082;-62
2021/12/06 10:04:44;;;;;;;103.63;33.03;;;;;;;8.27;61.84;101550.50;4969615;28;20085;-63
2021/12/06 10:07:10;;;;;;;108.05;32.10;;;;;;;7.98;62.42;101540.03;4972387;29;20019;-62
2021/12/06 10:09:40;;;;;;;115.07;34.63;;;;;;;8.11;62.39;101545.00;4968814;29;20044;-64
2021/12/06 10:12:06;;;;;;;106.40;31.05;;;;;;;8.56;61.16;101531.72;4952886;29;20027;-62
2021/12/06 10:14:32;;;;;;;112.20;33.45;;;;;;;8.80;60.27;101529.25;4953966;29;20035;-62
2021/12/06 10:16:58;;;;;;;107.35;34.60;;;;;;;8.07;62.64;101523.97;4952622;29;20038;-62
2021/12/06 10:19:25;;;;;;;115.43;34.38;;;;;;;7.72;63.57;101520.03;4968911;29;20031;-64
2021/12/06 10:21:52;;;;;;;112.32;34.88;;;;;;;8.01;62.24;101512.19;4949905;29;20059;-62
2021/12/06 10:24:20;;;;;;;108.18;33.10;;;;;;;7.90;62.27;101513.25;4969863;29;20074;-64
2021/12/06 10:26:46;;;;;;;103.50;32.85;;;;;;;7.90;62.93;101499.63;4964683;29;20027;-61
2021/12/06 10:29:20;;;;;;;103.10;31.73;;;;;;;8.05;62.47;101491.47;4970175;29;20035;-64
2021/12/06 10:31:47;;;;;;;89.20;26.98;;;;;;;7.97;62.08;101475.63;4967074;29;20023;-63
2021/12/06 10:34:22;;;;;;;81.00;26.95;;;;;;;7.80;62.52;101479.38;4974590;29;20035;-62
2021/12/06 10:36:48;;;;;;;73.28;23.80;;;;;;;7.66;61.60;101469.25;4966319;29;20034;-61
2021/12/06 10:39:13;;;;;;;79.50;27.50;;;;;;;8.08;60.24;101469.09;4971897;29;20035;-62
2021/12/06 10:41:39;;;;;;;75.00;25.50;;;;;;;7.76;61.16;101461.09;4954767;29;20027;-62
2021/12/06 10:44:09;;;;;;;78.68;26.27;;;;;;;7.80;60.87;101454.81;4970318;29;20035;-62
2021/12/06 10:46:42;;;;;;;76.25;27.00;;;;;;;8.29;59.75;101453.53;4946958;29;20050;-62
2021/12/06 10:49:14;;;;;;;78.82;26.30;;;;;;;7.94;60.18;101443.41;4972342;29;20035;-61
2021/12/06 10:51:40;;;;;;;85.03;28.45;;;;;;;8.78;58.37;101438.50;4967496;29;20027;-62
2021/12/06 10:54:16;;;;;;;83.00;26.30;;;;;;;8.88;58.31;101426.72;4971182;29;20050;-62
2021/12/06 10:56:46;;;;;;;76.32;27.17;;;;;;;8.08;60.12;101424.53;4967332;29;20024;-64
2021/12/06 10:59:16;;;;;;;73.07;24.40;;;;;;;7.96;60.84;101428.38;4959490;29;20741;-64
2021/12/06 11:01:42;;;;;;;74.07;27.20;;;;;;;8.43;59.58;101421.06;4968475;29;20024;-63
2021/12/06 11:04:11;;;;;;;68.03;24.48;;;;;;;7.49;60.96;101432.06;4971829;29;20019;-64
2021/12/06 11:06:44;;;;;;;70.55;25.58;;;;;;;7.73;60.46;101428.88;4949873;29;20115;-62
2021/12/06 11:09:13;;;;;;;74.35;25.63;;;;;;;8.38;59.28;101414.72;4972877;29;20034;-63
2021/12/06 11:11:41;;;;;;;75.05;27.50;;;;;;;8.35;59.49;101411.44;4971298;29;20023;-65
2021/12/06 11:14:11;;;;;;;66.60;23.67;;;;;;;7.92;60.30;101415.53;4974283;29;20023;-63
2021/12/06 11:16:43;;;;;;;64.22;23.23;;;;;;;7.86;59.97;101405.69;4971513;29;20023;-63
2021/12/06 11:19:15;;;;;;;67.03;25.90;;;;;;;8.07;59.28;101395.63;4968609;29;20046;-63
2021/12/06 11:21:45;;;;;;;65.85;23.73;;;;;;;7.98;59.26;101400.78;4962969;29;20027;-63
2021/12/06 11:24:43;;;;;;;63.67;25.25;;;;;;;8.44;59.02;101389.88;4952713;29;20063;-63
2021/12/06 11:27:23;;;;;;;68.50;23.23;;;;;;;7.84;59.86;101375.13;4938762;29;20031;-67
2021/12/06 11:29:51;;;;;;;61.55;22.42;;;;;;;8.27;58.09;101372.94;4972680;29;20035;-63
2021/12/06 11:32:27;;;;;;;69.53;24.10;;;;;;;8.80;57.18;101359.75;4974394;29;20061;-63
2021/12/06 11:34:59;;;;;;;71.30;25.08;;;;;;;8.48;58.37;101357.38;4973415;29;20035;-62